createdAt,value
2022-09-01T00:00:49.074Z,26.60
2022-09-01T00:03:18.458Z,26.60
2022-09-01T00:05:50.999Z,26.60
2022-09-01T00:08:20.858Z,26.60
2022-09-01T00:10:49.288Z,26.60
2022-09-01T00:13:17.853Z,26.50
2022-09-01T00:15:46.220Z,26.50
2022-09-01T00:18:15.698Z,26.50
2022-09-01T00:20:43.934Z,26.50
2022-09-01T00:23:12.273Z,26.50
2022-09-01T00:25:41.831Z,26.50
2022-09-01T00:28:10.014Z,26.50
2022-09-01T00:30:38.274Z,26.50
2022-09-01T00:33:06.450Z,26.50
2022-09-01T00:35:37.222Z,26.50
2022-09-01T00:38:05.835Z,26.50
2022-09-01T00:40:34.380Z,26.50
2022-09-01T00:43:14.875Z,26.50
2022-09-01T00:45:43.132Z,26.50
2022-09-01T00:48:11.320Z,26.50
2022-09-01T00:50:40.523Z,26.40
2022-09-01T00:53:09.820Z,26.40
2022-09-01T00:55:39.285Z,26.40
2022-09-01T00:58:19.651Z,26.40
2022-09-01T01:00:49.718Z,26.40
2022-09-01T01:03:18.035Z,26.40
2022-09-01T01:05:54.142Z,26.40
2022-09-01T01:08:31.547Z,26.40
2022-09-01T01:10:59.727Z,26.40
2022-09-01T01:13:32.160Z,26.40
2022-09-01T01:16:00.718Z,26.40
2022-09-01T01:18:29.004Z,26.40
2022-09-01T01:24:25.156Z,26.40
2022-09-01T01:26:54.969Z,26.40
2022-09-01T01:29:24.991Z,26.40
2022-09-01T01:31:54.303Z,26.40
2022-09-01T01:34:24.209Z,26.40
2022-09-01T01:36:55.220Z,26.40
2022-09-01T01:39:29.633Z,26.40
2022-09-01T01:41:59.142Z,26.40
2022-09-01T01:44:29.515Z,26.40
2022-09-01T01:47:08.441Z,26.40
2022-09-01T01:49:38.225Z,26.40
2022-09-01T01:52:08.270Z,26.40
2022-09-01T01:54:38.563Z,26.40
2022-09-01T01:57:08.118Z,26.40
2022-09-01T01:59:36.346Z,26.40
2022-09-01T02:02:09.784Z,26.40
2022-09-01T02:04:40.074Z,26.40
2022-09-01T02:07:12.946Z,26.40
2022-09-01T02:09:46.086Z,26.40
2022-09-01T02:12:19.484Z,26.40
2022-09-01T02:14:48.519Z,26.30
2022-09-01T02:17:17.606Z,26.40
2022-09-01T02:19:47.349Z,26.30
2022-09-01T02:22:15.553Z,26.40
2022-09-01T02:24:49.176Z,26.40
2022-09-01T02:27:25.859Z,26.30
2022-09-01T02:29:55.469Z,26.30
2022-09-01T02:32:24.076Z,26.30
2022-09-01T02:34:56.996Z,26.30
2022-09-01T02:37:25.438Z,26.30
2022-09-01T02:39:59.366Z,26.30
2022-09-01T02:42:29.671Z,26.30
2022-09-01T02:44:58.698Z,26.30
2022-09-01T02:47:28.058Z,26.30
2022-09-01T02:49:58.497Z,26.30
2022-09-01T02:52:26.938Z,26.30
2022-09-01T02:54:56.574Z,26.30
2022-09-01T02:57:24.905Z,26.30
2022-09-01T02:59:53.064Z,26.30
2022-09-01T03:02:21.582Z,26.30
2022-09-01T03:04:54.396Z,26.30
2022-09-01T03:07:23.893Z,26.30
2022-09-01T03:09:52.598Z,26.30
2022-09-01T03:12:24.108Z,26.30
2022-09-01T03:14:52.294Z,26.30
2022-09-01T03:17:21.668Z,26.30
2022-09-01T03:19:51.821Z,26.30
2022-09-01T03:22:20.684Z,26.30
2022-09-01T03:24:48.851Z,26.30
2022-09-01T03:27:17.630Z,26.30
2022-09-01T03:29:47.142Z,26.30
2022-09-01T03:32:15.328Z,26.30
2022-09-01T03:34:43.943Z,26.30
2022-09-01T03:37:12.482Z,26.30
2022-09-01T03:39:40.723Z,26.20
2022-09-01T03:42:12.076Z,26.30
2022-09-01T03:44:45.287Z,26.30
2022-09-01T03:47:19.040Z,26.30
2022-09-01T03:49:49.642Z,26.30
2022-09-01T03:52:18.268Z,26.20
2022-09-01T03:54:46.536Z,26.20
2022-09-01T03:57:14.752Z,26.20
2022-09-01T03:59:45.214Z,26.20
2022-09-01T04:02:15.161Z,26.20
2022-09-01T04:04:44.854Z,26.20
2022-09-01T04:07:19.086Z,26.20
2022-09-01T04:09:47.786Z,26.20
2022-09-01T04:12:17.316Z,26.20
2022-09-01T04:14:50.478Z,26.20
2022-09-01T04:17:36.235Z,26.20
2022-09-01T04:20:09.161Z,26.20
2022-09-01T04:22:38.207Z,26.20
2022-09-01T04:25:07.089Z,26.20
2022-09-01T04:27:36.205Z,26.20
2022-09-01T04:30:04.646Z,26.20
2022-09-01T04:32:35.765Z,26.20
2022-09-01T04:35:08.208Z,26.20
2022-09-01T04:37:36.556Z,26.20
2022-09-01T04:40:06.391Z,26.20
2022-09-01T04:42:35.284Z,26.20
2022-09-01T04:45:11.316Z,26.20
2022-09-01T04:47:45.536Z,26.20
2022-09-01T04:50:18.858Z,26.20
2022-09-01T04:53:07.591Z,26.20
2022-09-01T04:55:43.594Z,26.20
2022-09-01T04:58:13.672Z,26.20
2022-09-01T05:00:42.322Z,26.10
2022-09-01T05:03:10.611Z,26.10
2022-09-01T05:06:03.841Z,26.10
2022-09-01T05:08:35.284Z,26.10
2022-09-01T05:11:07.946Z,26.10
2022-09-01T05:13:57.769Z,26.10
2022-09-01T05:16:33.515Z,26.10
2022-09-01T05:19:01.739Z,26.10
2022-09-01T05:21:35.458Z,26.10
2022-09-01T05:24:05.104Z,26.10
2022-09-01T05:26:34.804Z,26.10
2022-09-01T05:29:10.581Z,26.10
2022-09-01T05:31:39.146Z,26.10
2022-09-01T05:34:09.743Z,26.10
2022-09-01T05:36:44.716Z,26.10
2022-09-01T05:39:13.254Z,26.10
2022-09-01T05:41:41.919Z,26.10
2022-09-01T05:44:11.272Z,26.10
2022-09-01T05:46:42.628Z,26.10
2022-09-01T05:49:13.871Z,26.10
2022-09-01T05:51:50.381Z,26.10
2022-09-01T05:54:23.280Z,26.10
2022-09-01T05:56:53.654Z,26.10
2022-09-01T05:59:26.627Z,26.10
2022-09-01T06:02:12.350Z,26.10
2022-09-01T06:04:42.120Z,26.10
2022-09-01T06:07:17.598Z,26.10
2022-09-01T06:09:53.724Z,26.10
2022-09-01T06:12:24.995Z,26.10
2022-09-01T06:14:55.817Z,26.10
2022-09-01T06:17:26.927Z,26.10
2022-09-01T06:19:59.427Z,26.10
2022-09-01T06:22:30.349Z,26.10
2022-09-01T06:25:02.732Z,26.10
2022-09-01T06:27:41.167Z,26.10
2022-09-01T06:30:15.039Z,26.10
2022-09-01T06:32:49.725Z,26.10
2022-09-01T06:35:19.037Z,26.10
2022-09-01T06:37:48.805Z,26.10
2022-09-01T06:40:39.258Z,26.10
2022-09-01T06:43:08.294Z,26.10
2022-09-01T06:45:42.708Z,26.20
2022-09-01T06:48:16.000Z,26.20
2022-09-01T06:53:59.291Z,26.20
2022-09-01T06:56:34.122Z,26.20
2022-09-01T06:59:15.567Z,26.20
2022-09-01T07:01:48.994Z,26.20
2022-09-01T07:04:21.495Z,26.30
2022-09-01T07:07:53.926Z,26.30
2022-09-01T07:10:20.887Z,26.30
2022-09-01T07:13:09.062Z,26.30
2022-09-01T07:18:30.982Z,26.30
2022-09-01T07:21:07.119Z,26.30
2022-09-01T07:24:06.060Z,26.30
2022-09-01T07:26:46.747Z,26.30
2022-09-01T07:29:16.592Z,26.30
2022-09-01T07:31:49.363Z,26.30
2022-09-01T07:39:55.771Z,26.40
2022-09-01T07:45:47.710Z,26.40
2022-09-01T07:51:42.121Z,26.40
2022-09-01T07:54:10.921Z,26.40
2022-09-01T07:56:40.574Z,26.40
2022-09-01T07:59:15.557Z,26.40
2022-09-01T08:01:55.735Z,26.40
2022-09-01T08:04:24.475Z,26.40
2022-09-01T08:06:56.634Z,26.40
2022-09-01T08:09:37.394Z,26.40
2022-09-01T08:12:07.717Z,26.40
2022-09-01T08:14:47.604Z,26.40
2022-09-01T08:17:17.672Z,26.40
2022-09-01T08:20:09.085Z,26.40
2022-09-01T08:22:58.224Z,26.40
2022-09-01T08:25:34.163Z,26.40
2022-09-01T08:28:03.140Z,26.40
2022-09-01T08:30:33.479Z,26.40
2022-09-01T08:33:10.639Z,26.40
2022-09-01T08:35:41.948Z,26.40
2022-09-01T08:38:10.902Z,26.40
2022-09-01T08:40:39.983Z,26.40
2022-09-01T08:43:17.882Z,26.40
2022-09-01T08:45:53.643Z,26.50
2022-09-01T08:49:23.286Z,26.50
2022-09-01T08:52:20.960Z,26.50
2022-09-01T08:54:53.058Z,26.50
2022-09-01T08:57:27.459Z,26.40
2022-09-01T09:00:18.235Z,26.40
2022-09-01T09:02:58.734Z,26.40
2022-09-01T09:05:44.415Z,26.40
2022-09-01T09:08:26.682Z,26.50
2022-09-01T09:11:05.460Z,26.50
2022-09-01T09:13:47.486Z,26.50
2022-09-01T09:16:30.425Z,26.40
2022-09-01T09:19:05.632Z,26.50
2022-09-01T09:21:37.018Z,26.50
2022-09-01T09:24:12.208Z,26.50
2022-09-01T09:26:44.524Z,26.50
2022-09-01T09:29:12.985Z,26.50
2022-09-01T09:31:49.875Z,26.50
2022-09-01T09:34:33.378Z,26.50
2022-09-01T09:37:21.486Z,26.50
2022-09-01T09:40:10.250Z,26.50
2022-09-01T09:42:40.410Z,26.50
2022-09-01T09:45:23.246Z,26.50
2022-09-01T09:47:52.298Z,26.60
2022-09-01T09:50:26.662Z,26.60
2022-09-01T09:53:12.552Z,26.60
2022-09-01T09:55:56.231Z,26.60
2022-09-01T09:58:27.597Z,26.60
2022-09-01T10:04:35.963Z,26.60
2022-09-01T10:07:28.491Z,26.60
2022-09-01T10:09:58.718Z,26.60
2022-09-01T10:12:27.931Z,26.60
2022-09-01T10:15:06.967Z,26.60
2022-09-01T10:17:44.445Z,26.60
2022-09-01T10:20:18.217Z,26.60
2022-09-01T10:22:48.539Z,26.60
2022-09-01T10:25:22.107Z,26.60
2022-09-01T10:27:55.012Z,26.60
2022-09-01T10:30:23.717Z,26.60
2022-09-01T10:32:55.963Z,26.60
2022-09-01T10:35:28.039Z,26.60
2022-09-01T10:37:59.524Z,26.60
2022-09-01T10:40:43.856Z,26.70
2022-09-01T10:43:38.333Z,26.70
2022-09-01T10:46:52.417Z,26.70
2022-09-01T10:49:46.514Z,26.70
2022-09-01T10:52:57.273Z,26.70
2022-09-01T10:55:44.022Z,26.70
2022-09-01T11:02:25.009Z,26.70
2022-09-01T11:05:16.844Z,26.70
2022-09-01T11:08:09.119Z,26.70
2022-09-01T11:10:57.189Z,26.70
2022-09-01T11:13:49.018Z,26.80
2022-09-01T11:16:49.997Z,26.80
2022-09-01T11:19:41.455Z,26.80
2022-09-01T11:22:17.612Z,26.80
2022-09-01T11:24:58.144Z,26.80
2022-09-01T11:28:00.110Z,26.80
2022-09-01T11:30:38.414Z,26.80
2022-09-01T11:33:24.089Z,26.80
2022-09-01T11:36:01.316Z,26.80
2022-09-01T11:38:45.007Z,26.80
2022-09-01T11:41:25.998Z,26.90
2022-09-01T11:44:01.494Z,26.90
2022-09-01T11:46:34.331Z,26.90
2022-09-01T11:49:08.305Z,26.90
2022-09-01T11:51:44.820Z,26.90
2022-09-01T11:54:13.843Z,26.90
2022-09-01T11:56:42.130Z,26.90
2022-09-01T11:59:12.249Z,26.90
2022-09-01T12:01:41.931Z,26.90
2022-09-01T12:04:23.223Z,27.00
2022-09-01T12:06:58.045Z,27.00
2022-09-01T12:09:34.476Z,27.00
2022-09-01T12:12:02.978Z,27.00
2022-09-01T12:14:54.885Z,27.00
2022-09-01T12:17:22.464Z,27.00
2022-09-01T12:19:50.802Z,27.00
2022-09-01T12:22:21.561Z,27.00
2022-09-01T12:24:52.212Z,27.00
2022-09-01T12:27:21.323Z,27.00
2022-09-01T12:29:51.681Z,27.00
2022-09-01T12:32:20.764Z,27.00
2022-09-01T12:35:01.510Z,27.00
2022-09-01T12:37:31.193Z,27.00
2022-09-01T12:40:00.464Z,27.00
2022-09-01T12:42:41.438Z,27.00
2022-09-01T12:45:14.487Z,27.00
2022-09-01T12:47:50.390Z,27.10
2022-09-01T12:50:50.820Z,27.10
2022-09-01T12:53:30.353Z,27.10
2022-09-01T12:56:21.069Z,27.10
2022-09-01T12:58:53.854Z,27.10
2022-09-01T13:01:37.494Z,27.10
2022-09-01T13:04:24.361Z,27.10
2022-09-01T13:06:53.504Z,27.10
2022-09-01T13:09:21.818Z,27.10
2022-09-01T13:12:07.020Z,27.10
2022-09-01T13:14:35.681Z,27.10
2022-09-01T13:17:06.017Z,27.10
2022-09-01T13:19:42.344Z,27.10
2022-09-01T13:22:10.739Z,27.10
2022-09-01T13:24:39.666Z,27.10
2022-09-01T13:27:23.603Z,27.10
2022-09-01T13:29:52.521Z,27.10
2022-09-01T13:32:23.941Z,27.10
2022-09-01T13:34:53.633Z,27.10
2022-09-01T13:37:22.848Z,27.10
2022-09-01T13:39:51.202Z,27.10
2022-09-01T13:42:20.021Z,27.10
2022-09-01T13:44:52.522Z,27.10
2022-09-01T13:47:29.877Z,27.10
2022-09-01T13:50:08.920Z,27.00
2022-09-01T13:52:39.406Z,27.00
2022-09-01T13:55:09.200Z,27.10
2022-09-01T13:57:37.380Z,27.10
2022-09-01T14:00:10.867Z,27.10
2022-09-01T14:02:42.938Z,27.10
2022-09-01T14:05:11.571Z,27.10
2022-09-01T14:07:39.742Z,27.10
2022-09-01T14:10:09.332Z,27.10
2022-09-01T14:12:39.548Z,27.10
2022-09-01T14:15:12.096Z,27.10
2022-09-01T14:17:45.023Z,27.10
2022-09-01T14:20:16.025Z,27.10
2022-09-01T14:22:44.209Z,27.10
2022-09-01T14:25:13.141Z,27.10
2022-09-01T14:27:42.433Z,27.10
2022-09-01T14:30:16.229Z,27.10
2022-09-01T14:32:46.089Z,27.00
2022-09-01T14:35:15.622Z,27.00
2022-09-01T14:37:45.598Z,27.00
2022-09-01T14:40:16.856Z,27.00
2022-09-01T14:42:49.298Z,27.00
2022-09-01T14:45:19.678Z,27.00
2022-09-01T14:47:53.059Z,27.00
2022-09-01T14:50:23.354Z,27.00
2022-09-01T14:52:54.422Z,27.00
2022-09-01T14:55:23.809Z,27.00
2022-09-01T14:57:54.458Z,27.00
2022-09-01T15:00:24.957Z,27.00
2022-09-01T15:02:55.382Z,27.00
2022-09-01T15:05:24.532Z,27.00
2022-09-01T15:07:53.175Z,27.10
2022-09-01T15:10:25.359Z,27.10
2022-09-01T15:12:55.452Z,27.00
2022-09-01T15:15:24.535Z,27.00
2022-09-01T15:17:54.156Z,27.00
2022-09-01T15:20:40.733Z,27.00
2022-09-01T15:23:09.220Z,27.00
2022-09-01T15:25:37.431Z,27.00
2022-09-01T15:28:06.276Z,27.00
2022-09-01T15:30:35.298Z,27.00
2022-09-01T15:33:06.093Z,27.00
2022-09-01T15:35:34.723Z,27.00
2022-09-01T15:38:03.179Z,27.00
2022-09-01T15:40:31.517Z,27.00
2022-09-01T15:43:00.088Z,27.00
2022-09-01T15:45:30.167Z,27.00
2022-09-01T15:47:58.602Z,27.00
2022-09-01T15:50:28.614Z,27.00
2022-09-01T15:52:58.690Z,27.00
2022-09-01T15:55:29.022Z,27.00
2022-09-01T15:57:58.426Z,27.00
2022-09-01T16:00:29.455Z,27.00
2022-09-01T16:03:01.662Z,27.00
2022-09-01T16:05:33.717Z,27.00
2022-09-01T16:08:03.110Z,26.90
2022-09-01T16:10:33.705Z,26.90
2022-09-01T16:13:05.767Z,26.90
2022-09-01T16:15:35.197Z,26.90
2022-09-01T16:18:24.772Z,26.90
2022-09-01T16:21:04.832Z,26.80
2022-09-01T16:23:41.496Z,26.90
2022-09-01T16:26:11.863Z,26.90
2022-09-01T16:28:40.377Z,26.80
2022-09-01T16:31:14.017Z,26.80
2022-09-01T16:33:48.043Z,26.80
2022-09-01T16:36:34.725Z,26.80
2022-09-01T16:39:10.518Z,26.80
2022-09-01T16:41:48.993Z,26.80
2022-09-01T16:44:27.337Z,26.80
2022-09-01T16:47:02.936Z,26.90
2022-09-01T16:49:37.876Z,26.80
2022-09-01T16:52:15.255Z,26.80
2022-09-01T16:54:57.069Z,26.80
2022-09-01T16:57:32.720Z,26.80
2022-09-01T17:00:04.003Z,26.80
2022-09-01T17:02:42.009Z,26.70
2022-09-01T17:05:20.650Z,26.80
2022-09-01T17:08:06.887Z,26.70
2022-09-01T17:10:41.888Z,26.70
2022-09-01T17:13:20.215Z,26.70
2022-09-01T17:15:58.421Z,26.70
2022-09-01T17:18:35.239Z,26.70
2022-09-01T17:21:13.117Z,26.70
2022-09-01T17:23:48.791Z,26.70
2022-09-01T17:26:22.403Z,26.80
2022-09-01T17:28:55.358Z,26.80
2022-09-01T17:31:39.210Z,26.80
2022-09-01T17:34:26.258Z,26.80
2022-09-01T17:37:06.170Z,26.80
2022-09-01T17:39:45.533Z,26.80
2022-09-01T17:42:25.021Z,26.80
2022-09-01T17:44:56.517Z,26.70
2022-09-01T17:47:35.843Z,26.70
2022-09-01T17:50:13.137Z,26.70
2022-09-01T17:52:52.742Z,26.70
2022-09-01T17:55:38.116Z,26.70
2022-09-01T17:58:16.088Z,26.80
2022-09-01T18:00:53.377Z,26.70
2022-09-01T18:03:42.677Z,26.70
2022-09-01T18:06:18.411Z,26.70
2022-09-01T18:08:49.898Z,26.70
2022-09-01T18:11:27.488Z,26.70
2022-09-01T18:14:00.884Z,26.70
2022-09-01T18:16:32.065Z,26.70
2022-09-01T18:19:05.526Z,26.80
2022-09-01T18:21:37.493Z,26.70
2022-09-01T18:24:15.043Z,26.80
2022-09-01T18:26:48.009Z,26.80
2022-09-01T18:29:16.970Z,26.80
2022-09-01T18:32:11.586Z,26.90
2022-09-01T18:35:00.569Z,26.90
2022-09-01T18:37:35.587Z,26.90
2022-09-01T18:40:16.573Z,27.00
2022-09-01T18:42:56.882Z,27.00
2022-09-01T18:45:35.788Z,26.90
2022-09-01T18:48:13.817Z,26.90
2022-09-01T18:50:48.215Z,26.90
2022-09-01T18:53:30.272Z,26.80
2022-09-01T18:56:07.125Z,26.70
2022-09-01T18:58:54.182Z,26.70
2022-09-01T19:01:32.851Z,26.70
2022-09-01T19:04:10.388Z,26.60
2022-09-01T19:06:47.449Z,26.60
2022-09-01T19:09:22.304Z,26.60
2022-09-01T19:12:03.778Z,26.60
2022-09-01T19:14:43.351Z,26.60
2022-09-01T19:17:30.057Z,26.60
2022-09-01T19:20:01.362Z,26.60
2022-09-01T19:22:40.306Z,26.60
2022-09-01T19:25:28.738Z,26.50
2022-09-01T19:28:03.337Z,26.50
2022-09-01T19:30:35.682Z,26.50
2022-09-01T19:33:06.548Z,26.50
2022-09-01T19:35:37.932Z,26.50
2022-09-01T19:38:09.234Z,26.50
2022-09-01T19:40:40.507Z,26.50
2022-09-01T19:43:15.689Z,26.50
2022-09-01T19:45:56.864Z,26.50
2022-09-01T19:48:30.336Z,26.40
2022-09-01T19:51:07.348Z,26.40
2022-09-01T19:53:46.291Z,26.40
2022-09-01T19:56:19.439Z,26.40
2022-09-01T19:58:55.545Z,26.40
2022-09-01T20:01:38.973Z,26.40
2022-09-01T20:04:18.257Z,26.40
2022-09-01T20:06:52.056Z,26.40
2022-09-01T20:09:27.024Z,26.40
2022-09-01T20:12:00.018Z,26.40
2022-09-01T20:14:52.344Z,26.40
2022-09-01T20:17:27.247Z,26.30
2022-09-01T20:20:01.589Z,26.30
2022-09-01T20:22:40.226Z,26.30
2022-09-01T20:25:11.205Z,26.30
2022-09-01T20:27:49.872Z,26.30
2022-09-01T20:30:20.812Z,26.30
2022-09-01T20:33:00.903Z,26.30
2022-09-01T20:35:39.838Z,26.30
2022-09-01T20:38:35.600Z,26.30
2022-09-01T20:41:11.689Z,26.30
2022-09-01T20:43:43.661Z,26.30
2022-09-01T20:46:11.923Z,26.30
2022-09-01T20:48:42.675Z,26.20
2022-09-01T20:51:18.445Z,26.30
2022-09-01T20:54:06.028Z,26.20
2022-09-01T20:56:42.195Z,26.20
2022-09-01T20:59:16.568Z,26.20
2022-09-01T21:01:51.868Z,26.20
2022-09-01T21:04:35.900Z,26.20
2022-09-01T21:07:10.417Z,26.20
2022-09-01T21:09:48.441Z,26.20
2022-09-01T21:12:26.901Z,26.10
2022-09-01T21:15:03.980Z,26.10
2022-09-01T21:17:39.647Z,26.10
2022-09-01T21:20:19.461Z,26.10
2022-09-01T21:22:47.639Z,26.10
2022-09-01T21:25:15.844Z,26.10
2022-09-01T21:27:48.679Z,26.10
2022-09-01T21:30:17.121Z,26.10
2022-09-01T21:32:45.896Z,26.10
2022-09-01T21:35:17.940Z,26.10
2022-09-01T21:37:46.284Z,26.10
2022-09-01T21:40:16.139Z,26.10
2022-09-01T21:42:50.285Z,26.10
2022-09-01T21:45:20.085Z,26.10
2022-09-01T21:47:49.811Z,26.10
2022-09-01T21:50:22.093Z,26.10
2022-09-01T21:52:50.515Z,26.10
2022-09-01T21:55:22.765Z,26.00
2022-09-01T21:57:51.784Z,26.00
2022-09-01T22:00:23.433Z,26.00
2022-09-01T22:02:52.082Z,26.00
2022-09-01T22:05:22.023Z,26.00
2022-09-01T22:07:50.734Z,26.00
2022-09-01T22:10:21.654Z,26.00
2022-09-01T22:12:51.206Z,26.00
2022-09-01T22:15:22.188Z,26.00
2022-09-01T22:17:51.407Z,26.00
2022-09-01T22:20:23.393Z,26.00
2022-09-01T22:22:54.713Z,25.90
2022-09-01T22:25:23.950Z,25.90
2022-09-01T22:27:52.296Z,25.90
2022-09-01T22:30:20.531Z,25.90
2022-09-01T22:32:48.680Z,25.90
2022-09-01T22:35:18.328Z,25.90
2022-09-01T22:37:48.298Z,25.90
2022-09-01T22:40:17.166Z,25.90
2022-09-01T22:42:45.892Z,25.90
2022-09-01T22:45:15.834Z,25.90
2022-09-01T22:47:44.046Z,25.90
2022-09-01T22:50:13.012Z,25.90
2022-09-01T22:52:46.921Z,25.90
2022-09-01T22:55:16.519Z,25.90
2022-09-01T22:57:44.905Z,25.90
2022-09-01T23:00:14.264Z,25.90
2022-09-01T23:02:42.715Z,25.90
2022-09-01T23:05:11.754Z,25.80
2022-09-01T23:07:39.991Z,25.90
2022-09-01T23:10:10.443Z,25.80
2022-09-01T23:12:40.051Z,25.80
2022-09-01T23:15:09.606Z,25.80
2022-09-01T23:17:38.758Z,25.80
2022-09-01T23:20:09.275Z,25.80
2022-09-01T23:22:37.914Z,25.80
2022-09-01T23:25:07.002Z,25.80
2022-09-01T23:27:35.246Z,25.80
2022-09-01T23:30:06.412Z,25.80
2022-09-01T23:32:34.965Z,25.70
2022-09-01T23:35:03.234Z,25.70
2022-09-01T23:37:31.455Z,25.70
2022-09-01T23:40:00.105Z,25.70
2022-09-01T23:42:28.339Z,25.70
2022-09-01T23:44:56.533Z,25.70
2022-09-01T23:47:26.250Z,25.70
2022-09-01T23:49:56.384Z,25.70
2022-09-01T23:52:24.564Z,25.70
2022-09-01T23:54:52.716Z,25.70
2022-09-01T23:57:21.150Z,25.70
2022-09-01T23:59:49.285Z,25.70
